sensor_id;sensor_type;location;lat;lon;timestamp;temperature;humidity
1680;DHT22;838;51.794;12.258;2023-11-22T00:00:10;1.40;47.40
1680;DHT22;838;51.794;12.258;2023-11-22T00:02:36;1.50;45.70
1680;DHT22;838;51.794;12.258;2023-11-22T00:05:03;1.70;45.90
1680;DHT22;838;51.794;12.258;2023-11-22T00:07:29;1.50;46.60
1680;DHT22;838;51.794;12.258;2023-11-22T00:09:55;1.60;48.70
1680;DHT22;838;51.794;12.258;2023-11-22T00:12:21;1.60;43.40
1680;DHT22;838;51.794;12.258;2023-11-22T00:14:48;1.50;44.70
1680;DHT22;838;51.794;12.258;2023-11-22T00:17:14;1.50;44.30
1680;DHT22;838;51.794;12.258;2023-11-22T00:19:44;1.50;44.20
1680;DHT22;838;51.794;12.258;2023-11-22T00:22:10;1.40;44.80
1680;DHT22;838;51.794;12.258;2023-11-22T00:24:40;1.50;46.20
1680;DHT22;838;51.794;12.258;2023-11-22T00:27:07;1.40;44.50
1680;DHT22;838;51.794;12.258;2023-11-22T00:29:33;1.30;46.00
1680;DHT22;838;51.794;12.258;2023-11-22T00:31:59;1.20;46.40
1680;DHT22;838;51.794;12.258;2023-11-22T00:34:25;1.20;47.40
1680;DHT22;838;51.794;12.258;2023-11-22T00:36:52;1.10;48.10
1680;DHT22;838;51.794;12.258;2023-11-22T00:39:18;1.10;49.70
1680;DHT22;838;51.794;12.258;2023-11-22T00:41:44;1.20;50.20
1680;DHT22;838;51.794;12.258;2023-11-22T00:44:10;1.10;50.00
1680;DHT22;838;51.794;12.258;2023-11-22T00:46:36;1.10;50.20
1680;DHT22;838;51.794;12.258;2023-11-22T00:49:05;1.00;50.60
1680;DHT22;838;51.794;12.258;2023-11-22T00:51:31;1.00;51.40
1680;DHT22;838;51.794;12.258;2023-11-22T00:54:00;1.00;51.80
1680;DHT22;838;51.794;12.258;2023-11-22T00:56:26;1.00;53.30
1680;DHT22;838;51.794;12.258;2023-11-22T00:58:53;1.00;54.10
1680;DHT22;838;51.794;12.258;2023-11-22T01:01:19;1.00;51.80
1680;DHT22;838;51.794;12.258;2023-11-22T01:03:45;1.00;52.60
1680;DHT22;838;51.794;12.258;2023-11-22T01:06:12;0.90;51.70
1680;DHT22;838;51.794;12.258;2023-11-22T01:08:38;0.80;53.20
1680;DHT22;838;51.794;12.258;2023-11-22T01:11:04;0.80;54.80
1680;DHT22;838;51.794;12.258;2023-11-22T01:13:34;0.80;54.50
1680;DHT22;838;51.794;12.258;2023-11-22T01:16:06;0.80;55.10
1680;DHT22;838;51.794;12.258;2023-11-22T01:18:32;0.80;54.50
1680;DHT22;838;51.794;12.258;2023-11-22T01:20:58;0.80;53.70
1680;DHT22;838;51.794;12.258;2023-11-22T01:23:24;0.70;54.30
1680;DHT22;838;51.794;12.258;2023-11-22T01:25:49;0.70;54.60
1680;DHT22;838;51.794;12.258;2023-11-22T01:28:16;0.80;55.10
1680;DHT22;838;51.794;12.258;2023-11-22T01:30:43;0.70;54.20
1680;DHT22;838;51.794;12.258;2023-11-22T01:33:12;0.70;55.20
1680;DHT22;838;51.794;12.258;2023-11-22T01:35:38;0.70;54.80
1680;DHT22;838;51.794;12.258;2023-11-22T01:38:04;0.80;54.30
1680;DHT22;838;51.794;12.258;2023-11-22T01:40:30;0.80;52.30
1680;DHT22;838;51.794;12.258;2023-11-22T01:42:57;0.70;53.00
1680;DHT22;838;51.794;12.258;2023-11-22T01:45:23;0.70;55.40
1680;DHT22;838;51.794;12.258;2023-11-22T01:47:49;0.60;55.00
1680;DHT22;838;51.794;12.258;2023-11-22T01:50:15;0.50;56.80
1680;DHT22;838;51.794;12.258;2023-11-22T01:52:42;0.40;58.40
1680;DHT22;838;51.794;12.258;2023-11-22T01:55:09;0.40;60.00
1680;DHT22;838;51.794;12.258;2023-11-22T01:57:36;0.50;58.00
1680;DHT22;838;51.794;12.258;2023-11-22T02:00:03;0.50;57.10
1680;DHT22;838;51.794;12.258;2023-11-22T02:02:35;0.50;57.90
1680;DHT22;838;51.794;12.258;2023-11-22T02:05:01;0.60;57.30
1680;DHT22;838;51.794;12.258;2023-11-22T02:07:27;0.50;54.00
1680;DHT22;838;51.794;12.258;2023-11-22T02:09:53;0.60;57.00
1680;DHT22;838;51.794;12.258;2023-11-22T02:12:19;0.70;51.00
1680;DHT22;838;51.794;12.258;2023-11-22T02:14:45;0.70;50.40
1680;DHT22;838;51.794;12.258;2023-11-22T02:17:12;0.60;50.90
1680;DHT22;838;51.794;12.258;2023-11-22T02:19:37;0.50;52.50
1680;DHT22;838;51.794;12.258;2023-11-22T02:22:03;0.50;54.50
1680;DHT22;838;51.794;12.258;2023-11-22T02:24:29;0.40;54.70
1680;DHT22;838;51.794;12.258;2023-11-22T02:26:55;0.30;56.30
1680;DHT22;838;51.794;12.258;2023-11-22T02:29:21;0.20;56.50
1680;DHT22;838;51.794;12.258;2023-11-22T02:31:47;0.30;57.30
1680;DHT22;838;51.794;12.258;2023-11-22T02:34:13;0.30;57.00
1680;DHT22;838;51.794;12.258;2023-11-22T02:36:42;0.30;56.20
1680;DHT22;838;51.794;12.258;2023-11-22T02:39:09;0.40;54.40
1680;DHT22;838;51.794;12.258;2023-11-22T02:41:34;0.30;54.00
1680;DHT22;838;51.794;12.258;2023-11-22T02:44:01;0.30;53.90
1680;DHT22;838;51.794;12.258;2023-11-22T02:46:26;0.30;54.30
1680;DHT22;838;51.794;12.258;2023-11-22T02:48:52;0.40;54.90
1680;DHT22;838;51.794;12.258;2023-11-22T02:51:20;0.40;52.30
1680;DHT22;838;51.794;12.258;2023-11-22T02:53:47;0.30;53.00
1680;DHT22;838;51.794;12.258;2023-11-22T02:56:14;0.40;51.90
1680;DHT22;838;51.794;12.258;2023-11-22T02:58:40;0.30;54.20
1680;DHT22;838;51.794;12.258;2023-11-22T03:01:06;0.50;53.20
1680;DHT22;838;51.794;12.258;2023-11-22T03:03:33;0.60;49.80
1680;DHT22;838;51.794;12.258;2023-11-22T03:05:59;0.60;47.90
1680;DHT22;838;51.794;12.258;2023-11-22T03:08:24;0.50;46.50
1680;DHT22;838;51.794;12.258;2023-11-22T03:10:50;0.40;46.50
1680;DHT22;838;51.794;12.258;2023-11-22T03:13:16;0.40;48.70
1680;DHT22;838;51.794;12.258;2023-11-22T03:15:43;0.40;50.00
1680;DHT22;838;51.794;12.258;2023-11-22T03:18:08;0.40;51.20
1680;DHT22;838;51.794;12.258;2023-11-22T03:20:34;0.40;48.90
1680;DHT22;838;51.794;12.258;2023-11-22T03:23:00;0.60;54.90
1680;DHT22;838;51.794;12.258;2023-11-22T03:25:25;0.80;45.80
1680;DHT22;838;51.794;12.258;2023-11-22T03:27:51;0.90;42.70
1680;DHT22;838;51.794;12.258;2023-11-22T03:30:17;1.20;41.00
1680;DHT22;838;51.794;12.258;2023-11-22T03:32:43;1.40;35.70
1680;DHT22;838;51.794;12.258;2023-11-22T03:35:09;1.30;31.40
1680;DHT22;838;51.794;12.258;2023-11-22T03:37:35;1.00;33.50
1680;DHT22;838;51.794;12.258;2023-11-22T03:40:01;0.70;37.60
1680;DHT22;838;51.794;12.258;2023-11-22T03:42:28;0.60;39.00
1680;DHT22;838;51.794;12.258;2023-11-22T03:44:54;0.60;40.70
1680;DHT22;838;51.794;12.258;2023-11-22T03:47:19;0.30;44.80
1680;DHT22;838;51.794;12.258;2023-11-22T03:49:45;0.20;47.00
1680;DHT22;838;51.794;12.258;2023-11-22T03:52:11;0.30;47.50
1680;DHT22;838;51.794;12.258;2023-11-22T03:54:38;0.20;48.90
1680;DHT22;838;51.794;12.258;2023-11-22T03:57:05;0.40;50.00
1680;DHT22;838;51.794;12.258;2023-11-22T03:59:30;0.30;50.10
1680;DHT22;838;51.794;12.258;2023-11-22T04:01:56;0.10;51.90
1680;DHT22;838;51.794;12.258;2023-11-22T04:04:22;0.00;51.70
1680;DHT22;838;51.794;12.258;2023-11-22T04:06:48;0.00;52.20
1680;DHT22;838;51.794;12.258;2023-11-22T04:09:14;-0.10;53.00
1680;DHT22;838;51.794;12.258;2023-11-22T04:11:42;0.10;53.50
1680;DHT22;838;51.794;12.258;2023-11-22T04:14:08;0.30;52.70
1680;DHT22;838;51.794;12.258;2023-11-22T04:16:34;0.50;45.70
1680;DHT22;838;51.794;12.258;2023-11-22T04:19:00;0.40;41.70
1680;DHT22;838;51.794;12.258;2023-11-22T04:21:26;0.20;45.10
1680;DHT22;838;51.794;12.258;2023-11-22T04:23:51;0.10;46.60
1680;DHT22;838;51.794;12.258;2023-11-22T04:26:17;0.10;47.60
1680;DHT22;838;51.794;12.258;2023-11-22T04:28:45;0.40;48.00
1680;DHT22;838;51.794;12.258;2023-11-22T04:31:11;0.30;43.70
1680;DHT22;838;51.794;12.258;2023-11-22T04:33:38;0.20;44.50
1680;DHT22;838;51.794;12.258;2023-11-22T04:36:04;0.40;44.80
1680;DHT22;838;51.794;12.258;2023-11-22T04:38:29;0.10;45.60
1680;DHT22;838;51.794;12.258;2023-11-22T04:40:55;0.10;52.50
1680;DHT22;838;51.794;12.258;2023-11-22T04:43:21;0.20;43.20
1680;DHT22;838;51.794;12.258;2023-11-22T04:45:47;0.10;44.80
1680;DHT22;838;51.794;12.258;2023-11-22T04:48:12;0.10;45.70
1680;DHT22;838;51.794;12.258;2023-11-22T04:50:42;0.20;46.20
1680;DHT22;838;51.794;12.258;2023-11-22T04:53:11;0.10;45.30
1680;DHT22;838;51.794;12.258;2023-11-22T04:55:36;0.10;45.80
1680;DHT22;838;51.794;12.258;2023-11-22T04:58:03;0.00;45.90
1680;DHT22;838;51.794;12.258;2023-11-22T05:00:29;0.10;48.40
1680;DHT22;838;51.794;12.258;2023-11-22T05:02:54;0.00;47.40
1680;DHT22;838;51.794;12.258;2023-11-22T05:05:20;0.00;49.80
1680;DHT22;838;51.794;12.258;2023-11-22T05:07:46;0.20;51.10
1680;DHT22;838;51.794;12.258;2023-11-22T05:10:13;0.20;45.00
1680;DHT22;838;51.794;12.258;2023-11-22T05:12:39;0.00;44.80
1680;DHT22;838;51.794;12.258;2023-11-22T05:15:08;-0.30;51.50
1680;DHT22;838;51.794;12.258;2023-11-22T05:17:34;-0.40;55.10
1680;DHT22;838;51.794;12.258;2023-11-22T05:20:01;-0.30;56.50
1680;DHT22;838;51.794;12.258;2023-11-22T05:22:26;-0.40;54.70
1680;DHT22;838;51.794;12.258;2023-11-22T05:24:52;-0.50;57.10
1680;DHT22;838;51.794;12.258;2023-11-22T05:27:18;-0.60;60.50
1680;DHT22;838;51.794;12.258;2023-11-22T05:29:43;-0.50;61.50
1680;DHT22;838;51.794;12.258;2023-11-22T05:32:09;-0.40;59.80
1680;DHT22;838;51.794;12.258;2023-11-22T05:34:35;-0.40;62.00
1680;DHT22;838;51.794;12.258;2023-11-22T05:37:01;-0.30;64.10
1680;DHT22;838;51.794;12.258;2023-11-22T05:39:26;0.00;61.00
1680;DHT22;838;51.794;12.258;2023-11-22T05:41:54;0.10;52.00
1680;DHT22;838;51.794;12.258;2023-11-22T05:44:20;0.10;51.00
1680;DHT22;838;51.794;12.258;2023-11-22T05:46:45;0.10;47.50
1680;DHT22;838;51.794;12.258;2023-11-22T05:49:11;0.10;48.30
1680;DHT22;838;51.794;12.258;2023-11-22T05:51:37;0.10;50.60
1680;DHT22;838;51.794;12.258;2023-11-22T05:54:03;0.30;53.40
1680;DHT22;838;51.794;12.258;2023-11-22T05:56:29;0.70;46.10
1680;DHT22;838;51.794;12.258;2023-11-22T05:58:56;1.00;39.60
1680;DHT22;838;51.794;12.258;2023-11-22T06:01:22;1.00;30.70
1680;DHT22;838;51.794;12.258;2023-11-22T06:03:48;0.90;36.90
1680;DHT22;838;51.794;12.258;2023-11-22T06:06:14;1.00;35.10
1680;DHT22;838;51.794;12.258;2023-11-22T06:08:40;1.10;32.20
1680;DHT22;838;51.794;12.258;2023-11-22T06:11:05;0.90;29.50
1680;DHT22;838;51.794;12.258;2023-11-22T06:13:31;0.90;31.80
1680;DHT22;838;51.794;12.258;2023-11-22T06:15:57;1.00;33.30
1680;DHT22;838;51.794;12.258;2023-11-22T06:18:23;1.10;31.00
1680;DHT22;838;51.794;12.258;2023-11-22T06:20:55;0.90;30.10
1680;DHT22;838;51.794;12.258;2023-11-22T06:23:21;0.70;30.80
1680;DHT22;838;51.794;12.258;2023-11-22T06:25:47;0.50;33.00
1680;DHT22;838;51.794;12.258;2023-11-22T06:28:13;0.40;32.80
1680;DHT22;838;51.794;12.258;2023-11-22T06:30:38;0.50;34.80
1680;DHT22;838;51.794;12.258;2023-11-22T06:33:04;0.50;35.50
1680;DHT22;838;51.794;12.258;2023-11-22T06:35:30;0.80;34.00
1680;DHT22;838;51.794;12.258;2023-11-22T06:37:56;1.00;30.60
1680;DHT22;838;51.794;12.258;2023-11-22T06:40:21;1.20;28.10
1680;DHT22;838;51.794;12.258;2023-11-22T06:42:48;1.20;26.00
1680;DHT22;838;51.794;12.258;2023-11-22T06:45:14;0.90;25.20
1680;DHT22;838;51.794;12.258;2023-11-22T06:47:40;0.80;28.40
1680;DHT22;838;51.794;12.258;2023-11-22T06:50:06;0.50;27.50
1680;DHT22;838;51.794;12.258;2023-11-22T06:52:38;0.20;33.70
1680;DHT22;838;51.794;12.258;2023-11-22T06:55:08;0.20;35.90
1680;DHT22;838;51.794;12.258;2023-11-22T06:57:37;0.00;38.50
1680;DHT22;838;51.794;12.258;2023-11-22T07:00:04;0.00;40.40
1680;DHT22;838;51.794;12.258;2023-11-22T07:02:33;0.10;40.70
1680;DHT22;838;51.794;12.258;2023-11-22T07:05:00;0.40;40.80
1680;DHT22;838;51.794;12.258;2023-11-22T07:07:26;0.00;37.20
1680;DHT22;838;51.794;12.258;2023-11-22T07:09:53;-0.10;39.90
1680;DHT22;838;51.794;12.258;2023-11-22T07:12:19;-0.10;40.30
1680;DHT22;838;51.794;12.258;2023-11-22T07:14:45;0.10;44.00
1680;DHT22;838;51.794;12.258;2023-11-22T07:17:11;0.20;41.70
1680;DHT22;838;51.794;12.258;2023-11-22T07:19:36;0.60;38.30
1680;DHT22;838;51.794;12.258;2023-11-22T07:22:06;0.70;31.20
1680;DHT22;838;51.794;12.258;2023-11-22T07:24:42;0.70;29.00
1680;DHT22;838;51.794;12.258;2023-11-22T07:27:10;0.80;29.90
1680;DHT22;838;51.794;12.258;2023-11-22T07:29:39;1.20;29.10
1680;DHT22;838;51.794;12.258;2023-11-22T07:32:06;1.60;22.60
1680;DHT22;838;51.794;12.258;2023-11-22T07:34:32;1.80;21.20
1680;DHT22;838;51.794;12.258;2023-11-22T07:36:59;2.10;20.50
1680;DHT22;838;51.794;12.258;2023-11-22T07:39:24;2.60;18.00
1680;DHT22;838;51.794;12.258;2023-11-22T07:41:53;2.90;14.50
1680;DHT22;838;51.794;12.258;2023-11-22T07:44:21;3.20;13.60
1680;DHT22;838;51.794;12.258;2023-11-22T07:46:47;3.40;9.90
1680;DHT22;838;51.794;12.258;2023-11-22T07:49:13;3.40;9.30
1680;DHT22;838;51.794;12.258;2023-11-22T07:51:42;3.10;9.10
1680;DHT22;838;51.794;12.258;2023-11-22T07:54:09;3.20;11.90
1680;DHT22;838;51.794;12.258;2023-11-22T07:56:34;3.30;8.80
1680;DHT22;838;51.794;12.258;2023-11-22T07:59:00;3.40;9.00
1680;DHT22;838;51.794;12.258;2023-11-22T08:01:26;3.30;5.50
1680;DHT22;838;51.794;12.258;2023-11-22T08:03:55;3.20;6.60
1680;DHT22;838;51.794;12.258;2023-11-22T08:06:21;2.90;5.90
1680;DHT22;838;51.794;12.258;2023-11-22T08:08:47;2.50;10.20
1680;DHT22;838;51.794;12.258;2023-11-22T08:11:13;2.20;14.60
1680;DHT22;838;51.794;12.258;2023-11-22T08:13:41;2.50;14.70
1680;DHT22;838;51.794;12.258;2023-11-22T08:16:08;2.90;13.00
1680;DHT22;838;51.794;12.258;2023-11-22T08:18:34;2.90;10.40
1680;DHT22;838;51.794;12.258;2023-11-22T08:21:00;3.00;11.00
1680;DHT22;838;51.794;12.258;2023-11-22T08:23:26;3.20;9.40
1680;DHT22;838;51.794;12.258;2023-11-22T08:26:00;3.20;6.40
1680;DHT22;838;51.794;12.258;2023-11-22T08:28:27;3.30;7.60
1680;DHT22;838;51.794;12.258;2023-11-22T08:30:53;3.60;6.00
1680;DHT22;838;51.794;12.258;2023-11-22T08:33:18;4.00;4.90
1680;DHT22;838;51.794;12.258;2023-11-22T08:35:44;4.10;1.10
1680;DHT22;838;51.794;12.258;2023-11-22T08:38:16;4.50;1.70
1680;DHT22;838;51.794;12.258;2023-11-22T08:40:42;4.40;1.00
1680;DHT22;838;51.794;12.258;2023-11-22T08:43:08;4.50;1.00
1680;DHT22;838;51.794;12.258;2023-11-22T08:45:33;4.30;1.00
1680;DHT22;838;51.794;12.258;2023-11-22T08:48:00;4.70;1.00
1680;DHT22;838;51.794;12.258;2023-11-22T08:50:26;4.90;1.00
1680;DHT22;838;51.794;12.258;2023-11-22T08:52:52;5.00;1.00
1680;DHT22;838;51.794;12.258;2023-11-22T08:55:19;4.70;1.00
1680;DHT22;838;51.794;12.258;2023-11-22T08:57:48;4.30;1.00
1680;DHT22;838;51.794;12.258;2023-11-22T09:00:16;3.90;1.00
1680;DHT22;838;51.794;12.258;2023-11-22T09:02:50;3.50;1.00
1680;DHT22;838;51.794;12.258;2023-11-22T09:05:16;3.20;1.00
1680;DHT22;838;51.794;12.258;2023-11-22T09:07:45;2.90;1.20
1680;DHT22;838;51.794;12.258;2023-11-22T09:10:12;2.90;3.50
1680;DHT22;838;51.794;12.258;2023-11-22T09:12:42;3.00;1.80
1680;DHT22;838;51.794;12.258;2023-11-22T09:15:11;2.90;1.00
1680;DHT22;838;51.794;12.258;2023-11-22T09:17:37;2.80;1.00
1680;DHT22;838;51.794;12.258;2023-11-22T09:20:10;2.50;1.20
1680;DHT22;838;51.794;12.258;2023-11-22T09:22:43;2.30;6.50
1680;DHT22;838;51.794;12.258;2023-11-22T09:25:16;2.50;6.60
1680;DHT22;838;51.794;12.258;2023-11-22T09:27:43;2.60;5.60
1680;DHT22;838;51.794;12.258;2023-11-22T09:30:13;2.40;6.10
1680;DHT22;838;51.794;12.258;2023-11-22T09:32:47;2.60;6.60
1680;DHT22;838;51.794;12.258;2023-11-22T09:35:14;2.70;1.40
1680;DHT22;838;51.794;12.258;2023-11-22T09:37:40;2.70;1.00
1680;DHT22;838;51.794;12.258;2023-11-22T09:40:10;2.70;1.00
1680;DHT22;838;51.794;12.258;2023-11-22T09:42:37;2.80;1.60
1680;DHT22;838;51.794;12.258;2023-11-22T09:45:03;2.70;5.70
1680;DHT22;838;51.794;12.258;2023-11-22T09:47:32;2.80;1.30
1680;DHT22;838;51.794;12.258;2023-11-22T09:50:01;2.70;1.80
1680;DHT22;838;51.794;12.258;2023-11-22T09:52:33;2.80;2.30
1680;DHT22;838;51.794;12.258;2023-11-22T09:55:02;2.70;3.50
1680;DHT22;838;51.794;12.258;2023-11-22T09:57:30;2.60;2.80
1680;DHT22;838;51.794;12.258;2023-11-22T09:59:57;2.70;1.00
1680;DHT22;838;51.794;12.258;2023-11-22T10:02:24;2.50;5.20
1680;DHT22;838;51.794;12.258;2023-11-22T10:04:53;2.60;5.80
1680;DHT22;838;51.794;12.258;2023-11-22T10:07:19;2.80;6.50
1680;DHT22;838;51.794;12.258;2023-11-22T10:09:45;3.10;5.80
1680;DHT22;838;51.794;12.258;2023-11-22T10:12:12;3.20;5.70
1680;DHT22;838;51.794;12.258;2023-11-22T10:14:38;3.20;2.10
1680;DHT22;838;51.794;12.258;2023-11-22T10:17:04;3.20;1.00
1680;DHT22;838;51.794;12.258;2023-11-22T10:19:31;3.40;1.00
1680;DHT22;838;51.794;12.258;2023-11-22T10:22:08;3.60;1.00
1680;DHT22;838;51.794;12.258;2023-11-22T10:24:35;3.60;1.00
1680;DHT22;838;51.794;12.258;2023-11-22T10:27:01;3.60;1.00
1680;DHT22;838;51.794;12.258;2023-11-22T10:29:28;3.70;1.00
1680;DHT22;838;51.794;12.258;2023-11-22T10:31:54;3.60;1.00
1680;DHT22;838;51.794;12.258;2023-11-22T10:34:23;3.40;1.00
1680;DHT22;838;51.794;12.258;2023-11-22T10:36:50;3.10;1.00
1680;DHT22;838;51.794;12.258;2023-11-22T10:39:22;3.50;1.00
1680;DHT22;838;51.794;12.258;2023-11-22T10:41:48;3.90;1.00
1680;DHT22;838;51.794;12.258;2023-11-22T10:44:20;4.30;1.00
1680;DHT22;838;51.794;12.258;2023-11-22T10:46:47;4.50;1.00
1680;DHT22;838;51.794;12.258;2023-11-22T10:49:13;4.20;1.00
1680;DHT22;838;51.794;12.258;2023-11-22T10:51:40;3.90;1.00
1680;DHT22;838;51.794;12.258;2023-11-22T10:54:07;3.60;1.00
1680;DHT22;838;51.794;12.258;2023-11-22T10:56:39;3.60;1.00
1680;DHT22;838;51.794;12.258;2023-11-22T10:59:12;3.80;1.00
1680;DHT22;838;51.794;12.258;2023-11-22T11:01:43;4.00;1.00
1680;DHT22;838;51.794;12.258;2023-11-22T11:04:19;4.10;1.00
1680;DHT22;838;51.794;12.258;2023-11-22T11:06:49;4.30;1.00
1680;DHT22;838;51.794;12.258;2023-11-22T11:09:19;4.10;1.00
1680;DHT22;838;51.794;12.258;2023-11-22T11:11:47;4.10;1.00
1680;DHT22;838;51.794;12.258;2023-11-22T11:14:13;3.90;1.00
1680;DHT22;838;51.794;12.258;2023-11-22T11:16:42;4.10;1.00
1680;DHT22;838;51.794;12.258;2023-11-22T11:19:14;4.30;1.00
1680;DHT22;838;51.794;12.258;2023-11-22T11:21:40;4.50;1.00
1680;DHT22;838;51.794;12.258;2023-11-22T11:24:06;4.30;1.00
1680;DHT22;838;51.794;12.258;2023-11-22T11:26:33;3.90;1.00
1680;DHT22;838;51.794;12.258;2023-11-22T11:29:00;3.70;1.00
1680;DHT22;838;51.794;12.258;2023-11-22T11:31:31;3.90;1.00
1680;DHT22;838;51.794;12.258;2023-11-22T11:34:01;4.00;1.00
1680;DHT22;838;51.794;12.258;2023-11-22T11:36:31;4.10;1.00
1680;DHT22;838;51.794;12.258;2023-11-22T11:39:00;4.00;1.00
1680;DHT22;838;51.794;12.258;2023-11-22T11:41:28;4.00;1.00
1680;DHT22;838;51.794;12.258;2023-11-22T11:43:56;4.30;1.00
1680;DHT22;838;51.794;12.258;2023-11-22T11:46:23;4.20;1.00
1680;DHT22;838;51.794;12.258;2023-11-22T11:48:50;4.00;1.00
1680;DHT22;838;51.794;12.258;2023-11-22T11:51:17;4.10;1.00
1680;DHT22;838;51.794;12.258;2023-11-22T11:53:44;4.10;1.00
1680;DHT22;838;51.794;12.258;2023-11-22T11:56:10;3.80;1.00
1680;DHT22;838;51.794;12.258;2023-11-22T11:58:37;3.80;1.00
1680;DHT22;838;51.794;12.258;2023-11-22T12:01:06;3.90;1.00
1680;DHT22;838;51.794;12.258;2023-11-22T12:03:33;4.00;1.00
1680;DHT22;838;51.794;12.258;2023-11-22T12:05:59;4.20;1.00
1680;DHT22;838;51.794;12.258;2023-11-22T12:08:25;4.20;1.00
1680;DHT22;838;51.794;12.258;2023-11-22T12:10:56;4.50;1.00
1680;DHT22;838;51.794;12.258;2023-11-22T12:13:24;4.60;1.00
1680;DHT22;838;51.794;12.258;2023-11-22T12:15:52;4.10;1.00
1680;DHT22;838;51.794;12.258;2023-11-22T12:18:19;3.80;1.00
1680;DHT22;838;51.794;12.258;2023-11-22T12:21:00;3.60;1.00
1680;DHT22;838;51.794;12.258;2023-11-22T12:23:27;3.40;1.00
1680;DHT22;838;51.794;12.258;2023-11-22T12:25:57;3.30;1.00
1680;DHT22;838;51.794;12.258;2023-11-22T12:28:24;3.30;1.00
1680;DHT22;838;51.794;12.258;2023-11-22T12:30:51;3.30;1.00
1680;DHT22;838;51.794;12.258;2023-11-22T12:33:17;3.20;1.00
1680;DHT22;838;51.794;12.258;2023-11-22T12:35:48;3.20;1.00
1680;DHT22;838;51.794;12.258;2023-11-22T12:38:14;3.30;1.00
1680;DHT22;838;51.794;12.258;2023-11-22T12:40:46;3.80;1.00
1680;DHT22;838;51.794;12.258;2023-11-22T12:43:13;4.30;1.00
1680;DHT22;838;51.794;12.258;2023-11-22T12:45:41;4.00;1.00
1680;DHT22;838;51.794;12.258;2023-11-22T12:50:49;3.50;1.00
1680;DHT22;838;51.794;12.258;2023-11-22T12:53:17;3.70;1.00
1680;DHT22;838;51.794;12.258;2023-11-22T12:55:48;3.90;1.00
1680;DHT22;838;51.794;12.258;2023-11-22T12:58:18;3.90;1.00
1680;DHT22;838;51.794;12.258;2023-11-22T13:00:45;4.10;1.00
1680;DHT22;838;51.794;12.258;2023-11-22T13:03:12;4.20;1.00
1680;DHT22;838;51.794;12.258;2023-11-22T13:05:40;4.10;1.00
1680;DHT22;838;51.794;12.258;2023-11-22T13:08:08;4.40;1.00
1680;DHT22;838;51.794;12.258;2023-11-22T13:10:36;4.70;1.00
1680;DHT22;838;51.794;12.258;2023-11-22T13:13:02;4.80;1.00
1680;DHT22;838;51.794;12.258;2023-11-22T13:15:28;5.00;1.00
1680;DHT22;838;51.794;12.258;2023-11-22T13:17:54;5.30;1.00
1680;DHT22;838;51.794;12.258;2023-11-22T13:20:22;5.50;1.00
1680;DHT22;838;51.794;12.258;2023-11-22T13:22:48;5.60;1.00
1680;DHT22;838;51.794;12.258;2023-11-22T13:25:14;5.70;1.00
1680;DHT22;838;51.794;12.258;2023-11-22T13:27:40;5.90;1.00
1680;DHT22;838;51.794;12.258;2023-11-22T13:30:07;5.80;1.00
1680;DHT22;838;51.794;12.258;2023-11-22T13:32:33;5.80;1.00
1680;DHT22;838;51.794;12.258;2023-11-22T13:34:59;6.00;1.00
1680;DHT22;838;51.794;12.258;2023-11-22T13:37:25;6.10;1.00
1680;DHT22;838;51.794;12.258;2023-11-22T13:39:50;5.90;1.00
1680;DHT22;838;51.794;12.258;2023-11-22T13:42:16;5.80;1.00
1680;DHT22;838;51.794;12.258;2023-11-22T13:44:42;5.50;1.00
1680;DHT22;838;51.794;12.258;2023-11-22T13:47:10;5.20;1.00
1680;DHT22;838;51.794;12.258;2023-11-22T13:49:36;5.00;1.00
1680;DHT22;838;51.794;12.258;2023-11-22T13:52:03;4.70;1.00
1680;DHT22;838;51.794;12.258;2023-11-22T13:54:28;4.50;1.00
1680;DHT22;838;51.794;12.258;2023-11-22T13:56:54;4.50;1.00
1680;DHT22;838;51.794;12.258;2023-11-22T13:59:20;4.30;1.00
1680;DHT22;838;51.794;12.258;2023-11-22T14:01:46;4.10;1.00
1680;DHT22;838;51.794;12.258;2023-11-22T14:04:12;4.00;1.00
1680;DHT22;838;51.794;12.258;2023-11-22T14:06:38;3.90;1.00
1680;DHT22;838;51.794;12.258;2023-11-22T14:09:03;4.00;1.00
1680;DHT22;838;51.794;12.258;2023-11-22T14:11:29;4.00;1.00
1680;DHT22;838;51.794;12.258;2023-11-22T14:13:59;3.90;1.00
1680;DHT22;838;51.794;12.258;2023-11-22T14:16:27;3.90;1.00
1680;DHT22;838;51.794;12.258;2023-11-22T14:18:53;3.70;1.00
1680;DHT22;838;51.794;12.258;2023-11-22T14:21:18;3.60;1.00
1680;DHT22;838;51.794;12.258;2023-11-22T14:23:44;3.60;1.00
1680;DHT22;838;51.794;12.258;2023-11-22T14:26:10;3.70;1.00
1680;DHT22;838;51.794;12.258;2023-11-22T14:28:37;3.80;1.00
1680;DHT22;838;51.794;12.258;2023-11-22T14:31:03;3.80;1.00
1680;DHT22;838;51.794;12.258;2023-11-22T14:33:29;3.70;1.00
1680;DHT22;838;51.794;12.258;2023-11-22T14:35:57;3.50;1.90
1680;DHT22;838;51.794;12.258;2023-11-22T14:38:23;3.30;4.50
1680;DHT22;838;51.794;12.258;2023-11-22T14:40:50;3.30;5.20
1680;DHT22;838;51.794;12.258;2023-11-22T14:43:15;3.30;5.70
1680;DHT22;838;51.794;12.258;2023-11-22T14:45:41;3.20;7.40
1680;DHT22;838;51.794;12.258;2023-11-22T14:48:07;3.00;9.90
1680;DHT22;838;51.794;12.258;2023-11-22T14:50:35;2.90;11.50
1680;DHT22;838;51.794;12.258;2023-11-22T14:53:01;2.80;12.30
1680;DHT22;838;51.794;12.258;2023-11-22T14:55:27;2.70;13.40
1680;DHT22;838;51.794;12.258;2023-11-22T14:57:52;2.80;14.00
1680;DHT22;838;51.794;12.258;2023-11-22T15:00:20;2.60;13.80
1680;DHT22;838;51.794;12.258;2023-11-22T15:02:46;2.30;16.50
1680;DHT22;838;51.794;12.258;2023-11-22T15:05:14;2.20;18.30
1680;DHT22;838;51.794;12.258;2023-11-22T15:07:40;2.20;18.90
1680;DHT22;838;51.794;12.258;2023-11-22T15:10:10;2.00;19.30
1680;DHT22;838;51.794;12.258;2023-11-22T15:12:37;2.00;21.30
1680;DHT22;838;51.794;12.258;2023-11-22T15:15:05;1.90;21.20
1680;DHT22;838;51.794;12.258;2023-11-22T15:17:30;1.90;22.50
1680;DHT22;838;51.794;12.258;2023-11-22T15:19:57;1.90;22.10
1680;DHT22;838;51.794;12.258;2023-11-22T15:22:22;1.90;21.70
1680;DHT22;838;51.794;12.258;2023-11-22T15:24:48;1.90;22.70
1680;DHT22;838;51.794;12.258;2023-11-22T15:27:15;2.00;22.50
1680;DHT22;838;51.794;12.258;2023-11-22T15:29:40;2.00;22.10
1680;DHT22;838;51.794;12.258;2023-11-22T15:32:06;1.90;20.40
1680;DHT22;838;51.794;12.258;2023-11-22T15:34:32;1.90;22.00
1680;DHT22;838;51.794;12.258;2023-11-22T15:36:58;2.00;21.60
1680;DHT22;838;51.794;12.258;2023-11-22T15:39:23;2.20;20.20
1680;DHT22;838;51.794;12.258;2023-11-22T15:41:50;2.50;19.40
1680;DHT22;838;51.794;12.258;2023-11-22T15:44:16;2.30;19.00
1680;DHT22;838;51.794;12.258;2023-11-22T15:46:42;2.30;18.60
1680;DHT22;838;51.794;12.258;2023-11-22T15:49:08;2.30;17.50
1680;DHT22;838;51.794;12.258;2023-11-22T15:51:35;2.30;17.10
1680;DHT22;838;51.794;12.258;2023-11-22T15:54:02;2.30;19.00
1680;DHT22;838;51.794;12.258;2023-11-22T15:56:28;2.40;17.70
1680;DHT22;838;51.794;12.258;2023-11-22T15:58:54;2.50;16.70
1680;DHT22;838;51.794;12.258;2023-11-22T16:01:27;2.50;16.40
1680;DHT22;838;51.794;12.258;2023-11-22T16:03:53;2.50;16.60
1680;DHT22;838;51.794;12.258;2023-11-22T16:06:19;2.50;15.40
1680;DHT22;838;51.794;12.258;2023-11-22T16:08:46;2.50;16.30
1680;DHT22;838;51.794;12.258;2023-11-22T16:11:12;2.40;16.80
1680;DHT22;838;51.794;12.258;2023-11-22T16:13:37;2.30;18.20
1680;DHT22;838;51.794;12.258;2023-11-22T16:16:03;2.30;16.40
1680;DHT22;838;51.794;12.258;2023-11-22T16:18:29;2.10;17.10
1680;DHT22;838;51.794;12.258;2023-11-22T16:20:58;2.00;19.50
1680;DHT22;838;51.794;12.258;2023-11-22T16:23:24;1.80;20.30